Time;durP1;ratioP1;P1;durP2;ratioP2;P2;SDS_P1;SDS_P2;PMS_P1;PMS_P2;Temp;Humidity;BMP_temperature;BMP_pressure;BME280_temperature;BME280_humidity;BME280_pressure;Samples;Min_cycle;Max_cycle;Signal;HPM_P1;HPM_P2
2022/09/23 00:00:44;;;;;;;12.82;10.93;;;10.90;99.90;;;;;;4975506;28;20051;-81
2022/09/23 00:03:11;;;;;;;12.52;11.32;;;10.90;99.90;;;;;;4976601;28;20082;-81
2022/09/23 00:05:37;;;;;;;11.85;10.73;;;11.10;99.90;;;;;;4975589;28;20051;-81
2022/09/23 00:08:04;;;;;;;12.50;10.82;;;10.80;99.90;;;;;;4976189;28;20098;-81
2022/09/23 00:10:30;;;;;;;12.35;11.15;;;10.80;99.90;;;;;;4977429;28;20065;-81
2022/09/23 00:12:57;;;;;;;12.90;10.10;;;10.90;99.90;;;;;;4976536;28;20559;-81
2022/09/23 00:15:24;;;;;;;11.93;10.73;;;10.80;99.90;;;;;;4975113;28;20078;-82
2022/09/23 00:17:53;;;;;;;12.20;10.63;;;10.90;99.90;;;;;;4976408;28;20555;-81
2022/09/23 00:20:19;;;;;;;12.35;11.05;;;10.80;99.90;;;;;;4975177;28;20110;-81
2022/09/23 00:22:44;;;;;;;12.07;10.88;;;10.80;99.90;;;;;;4976795;28;20038;-81
2022/09/23 00:25:11;;;;;;;11.80;10.65;;;10.80;99.90;;;;;;4975882;28;20047;-81
2022/09/23 00:27:38;;;;;;;11.30;10.10;;;10.80;99.90;;;;;;4975477;28;20067;-81
2022/09/23 00:30:06;;;;;;;12.77;10.68;;;10.80;99.90;;;;;;4976156;28;20055;-81
2022/09/23 00:32:33;;;;;;;12.65;10.45;;;10.80;99.90;;;;;;4974592;28;20053;-81
2022/09/23 00:34:58;;;;;;;12.35;11.13;;;10.70;99.90;;;;;;4974597;28;20083;-81
2022/09/23 00:37:24;;;;;;;11.30;10.13;;;10.90;99.90;;;;;;4975161;28;20498;-81
2022/09/23 00:39:50;;;;;;;11.45;10.45;;;10.70;99.90;;;;;;4974363;28;20383;-81
2022/09/23 00:42:19;;;;;;;11.80;10.60;;;10.90;99.90;;;;;;4974825;28;20387;-81
2022/09/23 00:44:51;;;;;;;11.25;10.05;;;10.80;99.90;;;;;;4975634;28;20387;-81
2022/09/23 00:47:34;;;;;;;11.90;10.80;;;11.50;99.90;;;;;;4974872;28;20557;-81
2022/09/23 00:50:26;;;;;;;11.75;10.60;;;10.60;99.90;;;;;;4975430;28;20042;-81
2022/09/23 00:52:55;;;;;;;10.70;9.55;;;10.60;99.90;;;;;;4974576;28;20046;-81
2022/09/23 00:55:41;;;;;;;11.25;10.15;;;10.70;99.90;;;;;;4975485;28;20129;-81
2022/09/23 00:58:11;;;;;;;11.68;10.48;;;10.60;99.90;;;;;;4975533;28;20126;-81
2022/09/23 01:00:37;;;;;;;11.90;10.30;;;11.10;99.90;;;;;;4958513;28;20054;-81
2022/09/23 01:03:05;;;;;;;12.82;10.48;;;10.60;99.90;;;;;;4958424;28;20429;-81
2022/09/23 01:05:33;;;;;;;11.73;9.93;;;10.80;99.90;;;;;;4975542;28;20043;-81
2022/09/23 01:08:00;;;;;;;11.15;10.05;;;10.90;99.90;;;;;;4976401;28;20340;-81
2022/09/23 01:10:36;;;;;;;12.50;10.35;;;10.60;99.90;;;;;;4974855;28;20051;-81
2022/09/23 01:13:16;;;;;;;12.10;10.35;;;10.60;99.90;;;;;;4976111;28;20070;-81
2022/09/23 01:15:48;;;;;;;10.77;9.82;;;10.60;99.90;;;;;;4974806;28;20082;-81
2022/09/23 01:18:45;;;;;;;11.05;10.05;;;10.60;99.90;;;;;;4974254;28;20046;-81
2022/09/23 01:21:34;;;;;;;11.43;10.35;;;10.50;99.90;;;;;;4975623;28;20174;-81
2022/09/23 01:24:24;;;;;;;10.70;9.70;;;10.60;99.90;;;;;;4976177;28;20051;-81
2022/09/23 01:27:08;;;;;;;10.82;9.73;;;10.50;99.90;;;;;;4975461;28;20089;-81
2022/09/23 01:29:59;;;;;;;10.82;9.80;;;10.50;99.90;;;;;;4975983;28;20418;-81
2022/09/23 01:32:37;;;;;;;16.15;9.50;;;10.50;99.90;;;;;;4974054;28;20093;-81
2022/09/23 01:35:37;;;;;;;11.05;10.05;;;10.60;99.90;;;;;;4974835;28;20047;-81
2022/09/23 01:38:31;;;;;;;10.15;9.25;;;10.40;99.90;;;;;;4975834;28;20105;-81
2022/09/23 01:41:35;;;;;;;11.13;9.68;;;10.60;99.90;;;;;;4974996;28;20038;-81
2022/09/23 01:44:33;;;;;;;10.60;9.20;;;10.50;99.90;;;;;;4974148;28;20053;-81
2022/09/23 01:47:09;;;;;;;9.77;8.77;;;10.50;99.90;;;;;;4974820;28;20050;-81
2022/09/23 01:50:02;;;;;;;10.68;9.77;;;10.70;99.90;;;;;;4975023;28;20050;-81
2022/09/23 01:52:37;;;;;;;10.30;9.18;;;10.50;99.90;;;;;;4978440;28;20113;-80
2022/09/23 01:55:12;;;;;;;10.65;9.60;;;10.60;99.90;;;;;;4978372;28;20114;-81
2022/09/23 01:57:44;;;;;;;11.10;10.20;;;10.60;99.90;;;;;;4979652;28;20046;-81
2022/09/23 02:00:14;;;;;;;10.98;9.88;;;10.50;99.90;;;;;;4978250;28;20046;-81
2022/09/23 02:02:58;;;;;;;12.77;11.52;;;10.50;99.90;;;;;;4978958;28;20042;-81
2022/09/23 02:05:29;;;;;;;10.73;9.63;;;10.70;99.90;;;;;;4978221;28;20054;-81
2022/09/23 02:08:06;;;;;;;10.75;9.77;;;10.70;99.90;;;;;;4978187;28;20054;-81
2022/09/23 02:10:48;;;;;;;11.13;9.98;;;10.50;99.90;;;;;;4978120;28;20050;-81
2022/09/23 02:13:19;;;;;;;10.13;9.13;;;10.50;99.90;;;;;;4978366;28;20386;-81
2022/09/23 02:15:57;;;;;;;10.70;9.70;;;10.60;99.90;;;;;;4978148;28;20039;-81
2022/09/23 02:18:31;;;;;;;11.00;10.00;;;11.10;99.90;;;;;;4961921;28;20145;-81
2022/09/23 02:21:03;;;;;;;10.55;9.45;;;10.70;99.90;;;;;;4978552;28;20050;-81
2022/09/23 02:23:41;;;;;;;10.80;9.90;;;10.40;99.90;;;;;;4978530;28;20078;-81
2022/09/23 02:26:31;;;;;;;11.88;9.65;;;10.50;99.90;;;;;;4978749;28;20046;-81
2022/09/23 02:29:06;;;;;;;10.15;9.25;;;10.50;99.90;;;;;;4979186;28;20035;-81
2022/09/23 02:31:44;;;;;;;10.80;9.60;;;10.50;99.90;;;;;;4978507;28;20051;-80
2022/09/23 02:34:45;;;;;;;10.48;9.57;;;10.70;99.90;;;;;;4978386;28;20047;-80
2022/09/23 02:37:17;;;;;;;10.55;9.55;;;10.40;99.90;;;;;;4978453;28;20080;-81
2022/09/23 02:39:56;;;;;;;10.15;9.15;;;10.50;99.90;;;;;;4961198;28;20050;-81
2022/09/23 02:42:30;;;;;;;10.65;9.65;;;10.50;99.90;;;;;;4978270;28;20047;-81
2022/09/23 02:44:57;;;;;;;10.73;9.68;;;10.70;99.90;;;;;;4977714;28;20391;-81
2022/09/23 02:47:28;;;;;;;9.55;8.65;;;10.50;99.90;;;;;;4977727;28;20487;-81
2022/09/23 02:49:55;;;;;;;10.48;8.98;;;10.70;99.90;;;;;;4978014;28;20038;-82
2022/09/23 02:52:21;;;;;;;14.27;9.52;;;10.50;99.90;;;;;;4976875;28;20179;-81
2022/09/23 02:54:46;;;;;;;10.27;8.88;;;10.60;99.90;;;;;;4977502;28;20341;-81
2022/09/23 02:57:13;;;;;;;10.43;9.05;;;10.50;99.90;;;;;;4978564;28;20051;-80
2022/09/23 02:59:40;;;;;;;11.68;9.70;;;10.70;99.90;;;;;;4977784;28;20349;-81
2022/09/23 03:02:16;;;;;;;10.93;9.73;;;11.10;99.90;;;;;;4977706;28;20073;-81
2022/09/23 03:05:22;;;;;;;9.50;8.60;;;10.70;99.90;;;;;;4977493;28;20058;-80
2022/09/23 03:08:24;;;;;;;10.30;9.20;;;10.40;99.90;;;;;;4960832;28;20108;-81
2022/09/23 03:10:54;;;;;;;10.18;9.05;;;10.40;99.90;;;;;;4977689;28;20487;-81
2022/09/23 03:13:24;;;;;;;10.68;9.45;;;10.30;99.90;;;;;;4977593;28;20383;-81
2022/09/23 03:16:18;;;;;;;11.50;9.77;;;10.30;99.90;;;;;;4976441;28;20051;-81
2022/09/23 03:18:52;;;;;;;;;;;10.20;99.90;;;;;;4977547;28;20054;-81
2022/09/23 03:21:28;;;;;;;9.82;8.90;;;10.30;99.90;;;;;;4976156;28;20021;-81
2022/09/23 03:23:58;;;;;;;10.57;9.68;;;10.60;99.90;;;;;;4977226;28;20042;-81
2022/09/23 03:26:30;;;;;;;10.95;9.95;;;10.20;99.90;;;;;;4977634;28;20046;-81
2022/09/23 03:28:57;;;;;;;10.02;9.13;;;10.40;99.90;;;;;;4976465;28;20043;-81
2022/09/23 03:31:23;;;;;;;10.05;9.15;;;10.50;99.90;;;;;;4975794;28;20047;-81
2022/09/23 03:33:55;;;;;;;10.77;9.68;;;;;;;;;;4976878;28;20058;-81
2022/09/23 03:39:19;;;;;;;10.88;9.85;;;10.10;99.90;;;;;;4976988;28;20145;-81
2022/09/23 03:41:49;;;;;;;10.60;9.57;;;10.10;99.90;;;;;;4959945;28;20089;-80
2022/09/23 03:44:16;;;;;;;10.85;9.73;;;10.00;99.90;;;;;;4976204;28;20480;-81
2022/09/23 03:46:48;;;;;;;10.88;9.88;;;10.00;99.90;;;;;;4960015;28;20054;-80
2022/09/23 03:49:26;;;;;;;12.90;9.90;;;10.00;99.90;;;;;;4976001;28;20082;-81
2022/09/23 03:51:53;;;;;;;11.15;9.98;;;9.90;99.90;;;;;;4976563;28;20487;-80
2022/09/23 03:54:19;;;;;;;11.05;9.95;;;10.20;99.90;;;;;;4959796;28;20042;-81
2022/09/23 03:56:46;;;;;;;10.68;9.68;;;9.90;99.90;;;;;;4976066;28;20090;-81
2022/09/23 03:59:13;;;;;;;10.93;9.80;;;9.90;99.90;;;;;;4977420;28;20039;-81
2022/09/23 04:01:40;;;;;;;10.18;9.13;;;10.40;99.90;;;;;;4976764;28;20057;-81
2022/09/23 04:04:07;;;;;;;11.25;10.05;;;9.90;99.90;;;;;;4976604;28;20105;-81
2022/09/23 04:06:33;;;;;;;9.80;8.80;;;10.00;99.90;;;;;;4959701;28;20138;-81
2022/09/23 04:09:00;;;;;;;10.75;9.65;;;10.20;99.90;;;;;;4976311;28;20058;-81
2022/09/23 04:11:26;;;;;;;10.65;9.65;;;9.80;99.90;;;;;;4975783;28;20054;-81
2022/09/23 04:13:54;;;;;;;10.95;9.68;;;9.80;99.90;;;;;;4974984;28;20502;-81
2022/09/23 04:16:20;;;;;;;12.63;9.95;;;9.80;99.90;;;;;;4975138;28;20049;-81
2022/09/23 04:18:46;;;;;;;11.00;9.90;;;10.00;99.90;;;;;;4976996;28;20043;-81
2022/09/23 04:21:12;;;;;;;10.93;9.82;;;;;;;;;;4976264;28;20151;-81
2022/09/23 04:23:37;;;;;;;10.43;9.43;;;9.70;99.90;;;;;;4976326;28;20415;-81
2022/09/23 04:26:04;;;;;;;10.38;9.27;;;9.60;99.90;;;;;;4976085;28;20046;-80
2022/09/23 04:28:31;;;;;;;10.95;9.65;;;9.70;99.90;;;;;;4975955;28;20538;-80
2022/09/23 04:30:57;;;;;;;11.18;10.07;;;9.90;99.90;;;;;;4976195;28;20051;-81
2022/09/23 04:33:23;;;;;;;10.32;9.25;;;9.60;99.90;;;;;;4976095;28;20413;-81
2022/09/23 04:35:52;;;;;;;11.18;10.07;;;9.90;99.90;;;;;;4975650;28;20121;-81
2022/09/23 04:38:18;;;;;;;12.38;9.77;;;9.60;99.90;;;;;;4975935;28;20054;-81
2022/09/23 04:40:44;;;;;;;12.52;10.52;;;9.90;99.90;;;;;;4975778;28;20093;-81
2022/09/23 04:43:10;;;;;;;10.65;9.65;;;9.90;99.90;;;;;;4976382;28;20082;-81
2022/09/23 04:45:35;;;;;;;11.45;9.52;;;9.90;99.90;;;;;;4959644;28;20047;-80
2022/09/23 04:48:02;;;;;;;11.13;10.00;;;9.60;99.90;;;;;;4974868;28;20055;-81
2022/09/23 04:50:28;;;;;;;10.55;9.55;;;9.60;99.90;;;;;;4959040;28;20065;-80
2022/09/23 04:52:54;;;;;;;10.25;9.25;;;9.70;99.90;;;;;;4974549;28;20078;-81
2022/09/23 04:55:20;;;;;;;11.63;10.00;;;10.00;99.90;;;;;;4975432;28;20051;-80
2022/09/23 04:57:46;;;;;;;11.00;9.88;;;9.50;99.90;;;;;;4974268;28;20089;-81
2022/09/23 05:00:14;;;;;;;10.40;9.32;;;10.00;99.90;;;;;;4975465;28;20082;-81
2022/09/23 05:02:47;;;;;;;10.85;9.85;;;9.60;99.90;;;;;;4975666;28;20121;-81
2022/09/23 05:05:19;;;;;;;11.52;9.55;;;9.70;99.90;;;;;;4974424;28;20058;-81
2022/09/23 05:07:47;;;;;;;11.00;10.00;;;9.50;99.90;;;;;;4975914;28;20062;-81
2022/09/23 05:10:13;;;;;;;12.00;10.73;;;9.50;99.90;;;;;;4974384;28;20058;-81
2022/09/23 05:12:39;;;;;;;10.70;9.60;;;9.80;99.90;;;;;;4974310;28;20047;-81
2022/09/23 05:15:05;;;;;;;11.70;10.60;;;9.50;99.90;;;;;;4975279;28;20130;-81
2022/09/23 05:17:30;;;;;;;11.35;10.25;;;9.50;99.90;;;;;;4974466;28;20387;-80
2022/09/23 05:19:57;;;;;;;11.52;10.32;;;9.40;99.90;;;;;;4974214;28;20046;-81
2022/09/23 05:22:25;;;;;;;11.07;10.00;;;9.70;99.90;;;;;;4958402;28;20050;-81
2022/09/23 05:24:51;;;;;;;10.63;9.45;;;9.60;99.90;;;;;;4973872;28;20054;-81
2022/09/23 05:27:17;;;;;;;13.63;9.43;;;10.20;99.90;;;;;;4974053;28;20483;-81
2022/09/23 05:29:43;;;;;;;11.43;9.82;;;9.40;99.90;;;;;;4975118;28;20046;-80
2022/09/23 05:32:09;;;;;;;11.50;10.38;;;9.50;99.90;;;;;;4974093;28;20053;-81
2022/09/23 05:34:34;;;;;;;11.43;10.23;;;9.80;99.90;;;;;;4975567;28;20463;-81
2022/09/23 05:37:00;;;;;;;10.65;9.50;;;9.60;99.90;;;;;;4974708;28;20403;-81
2022/09/23 05:39:26;;;;;;;10.38;9.38;;;9.50;99.90;;;;;;4973871;28;20054;-81
2022/09/23 05:41:52;;;;;;;10.60;9.48;;;9.70;99.90;;;;;;4975179;28;20141;-81
2022/09/23 05:44:18;;;;;;;10.55;9.55;;;9.50;99.90;;;;;;4957963;28;20057;-81
2022/09/23 05:46:44;;;;;;;12.93;9.60;;;9.50;99.90;;;;;;4958139;28;20046;-81
2022/09/23 05:49:09;;;;;;;10.98;9.30;;;9.80;99.90;;;;;;4974905;28;20046;-81
2022/09/23 05:51:35;;;;;;;10.80;9.70;;;9.90;99.90;;;;;;4973718;28;20198;-81
2022/09/23 05:54:02;;;;;;;10.77;9.60;;;9.80;99.90;;;;;;4974780;28;20375;-80
2022/09/23 05:56:29;;;;;;;10.25;9.25;;;9.50;99.90;;;;;;4974735;28;20047;-81
2022/09/23 05:58:57;;;;;;;10.60;9.60;;;9.90;99.90;;;;;;4973915;28;20051;-81
2022/09/23 06:01:25;;;;;;;10.45;9.32;;;9.90;99.90;;;;;;4974629;28;20054;-81
2022/09/23 06:03:52;;;;;;;10.10;9.20;;;9.40;99.90;;;;;;4975181;28;20039;-81
2022/09/23 06:06:40;;;;;;;10.98;9.80;;;9.70;99.90;;;;;;4973467;28;20054;-80
2022/09/23 06:09:08;;;;;;;10.25;9.25;;;9.50;99.90;;;;;;4973879;28;20054;-80
2022/09/23 06:11:35;;;;;;;11.30;9.68;;;9.50;99.90;;;;;;4974731;28;20089;-80
2022/09/23 06:14:01;;;;;;;11.82;10.43;;;9.80;99.90;;;;;;4975132;28;20049;-81
2022/09/23 06:16:34;;;;;;;12.52;10.00;;;9.90;99.90;;;;;;4974602;28;20050;-81
2022/09/23 06:19:04;;;;;;;10.50;9.48;;;9.60;99.90;;;;;;4975621;28;20047;-81
2022/09/23 06:21:31;;;;;;;11.43;9.40;;;9.90;99.90;;;;;;4973625;28;20053;-80
2022/09/23 06:24:00;;;;;;;10.00;9.02;;;9.70;99.90;;;;;;4974018;28;20057;-80
2022/09/23 06:26:26;;;;;;;10.68;9.57;;;9.70;99.90;;;;;;4957619;28;20399;-81
2022/09/23 06:28:51;;;;;;;12.98;10.23;;;10.00;99.90;;;;;;4974744;28;20051;-81
2022/09/23 06:31:17;;;;;;;13.02;9.63;;;10.10;99.90;;;;;;4974600;28;20060;-80
2022/09/23 06:33:44;;;;;;;9.50;8.55;;;9.80;99.90;;;;;;4958269;28;20050;-80
2022/09/23 06:36:12;;;;;;;11.35;9.40;;;10.00;99.90;;;;;;4973216;28;20126;-80
2022/09/23 06:38:47;;;;;;;10.82;9.73;;;10.10;99.90;;;;;;4978250;28;20178;-80
2022/09/23 06:41:13;;;;;;;10.40;9.23;;;10.20;99.90;;;;;;4962087;28;20086;-81
2022/09/23 06:43:39;;;;;;;11.52;8.63;;;10.10;99.90;;;;;;4978522;28;20498;-80
2022/09/23 06:46:06;;;;;;;10.55;9.52;;;10.40;99.90;;;;;;4976825;28;20046;-80
2022/09/23 06:48:35;;;;;;;11.77;9.55;;;10.20;99.90;;;;;;4977931;28;20058;-79
2022/09/23 06:51:06;;;;;;;10.52;9.45;;;10.40;99.90;;;;;;4977815;28;20058;-79
2022/09/23 06:53:32;;;;;;;10.73;9.63;;;10.30;99.90;;;;;;4978000;28;20193;-80
2022/09/23 06:56:06;;;;;;;9.68;8.57;;;10.40;99.90;;;;;;4977093;28;20391;-80
2022/09/23 06:58:34;;;;;;;10.13;8.63;;;10.40;99.90;;;;;;4977734;28;20057;-80
2022/09/23 07:01:01;;;;;;;11.48;9.38;;;10.40;99.90;;;;;;4978080;28;20132;-80
2022/09/23 07:03:27;;;;;;;10.52;9.15;;;10.50;99.90;;;;;;4977814;28;20050;-80
2022/09/23 07:05:57;;;;;;;10.05;9.05;;;10.80;99.90;;;;;;4977786;28;20043;-80
2022/09/23 07:08:25;;;;;;;9.77;8.82;;;10.80;99.90;;;;;;4977647;28;20049;-80
2022/09/23 07:10:58;;;;;;;10.63;9.00;;;10.60;99.90;;;;;;4977805;28;20051;-80
2022/09/23 07:13:24;;;;;;;10.05;9.02;;;10.90;99.90;;;;;;4978458;28;20434;-80
2022/09/23 07:15:57;;;;;;;12.18;9.15;;;10.70;99.90;;;;;;4977651;28;20081;-81
2022/09/23 07:18:24;;;;;;;8.95;8.00;;;11.00;99.90;;;;;;4977619;28;20133;-80
2022/09/23 07:20:50;;;;;;;10.75;9.05;;;10.80;99.90;;;;;;4978052;28;20054;-81
2022/09/23 07:23:16;;;;;;;9.20;8.27;;;11.10;99.90;;;;;;4977191;28;20042;-80
2022/09/23 07:25:45;;;;;;;10.57;8.90;;;11.00;99.90;;;;;;4976140;28;20105;-80
2022/09/23 07:28:12;;;;;;;10.52;9.10;;;11.00;99.90;;;;;;4960718;28;20097;-80
2022/09/23 07:30:39;;;;;;;10.90;9.40;;;11.40;99.90;;;;;;4977327;28;20039;-80
2022/09/23 07:33:06;;;;;;;10.88;8.50;;;11.20;99.90;;;;;;4977222;28;20046;-79
2022/09/23 07:35:32;;;;;;;10.27;9.25;;;11.50;99.90;;;;;;4977019;28;20063;-81
2022/09/23 07:37:58;;;;;;;12.85;9.80;;;11.20;99.90;;;;;;4976252;28;20058;-80
2022/09/23 07:40:24;;;;;;;10.20;9.18;;;11.20;99.90;;;;;;4975945;28;20058;-79
2022/09/23 07:42:50;;;;;;;9.43;8.07;;;11.30;99.90;;;;;;4977085;28;20129;-81
2022/09/23 07:45:16;;;;;;;10.05;8.85;;;11.40;99.90;;;;;;4977148;28;20094;-80
2022/09/23 07:47:42;;;;;;;9.52;8.60;;;11.30;99.90;;;;;;4976699;28;20138;-80
2022/09/23 07:50:12;;;;;;;10.52;8.65;;;11.60;99.90;;;;;;4975443;28;20055;-81
2022/09/23 07:52:38;;;;;;;12.00;9.23;;;11.80;99.90;;;;;;4976858;28;20047;-78
2022/09/23 07:55:05;;;;;;;9.57;8.63;;;11.60;99.90;;;;;;4976805;28;20053;-79
2022/09/23 07:57:31;;;;;;;10.85;8.80;;;11.50;99.90;;;;;;4976526;28;20126;-79
2022/09/23 07:59:57;;;;;;;9.55;8.68;;;11.80;99.90;;;;;;4975494;28;20054;-79
2022/09/23 08:02:23;;;;;;;10.15;9.15;;;11.60;99.90;;;;;;4976614;28;20353;-80
2022/09/23 08:04:49;;;;;;;10.70;8.85;;;11.70;99.90;;;;;;4975700;28;20403;-79
2022/09/23 08:07:15;;;;;;;11.15;9.98;;;11.90;99.90;;;;;;4975419;28;20046;-79
2022/09/23 08:09:43;;;;;;;10.98;9.80;;;11.90;99.90;;;;;;4976795;28;20156;-79
2022/09/23 08:12:10;;;;;;;10.60;9.30;;;11.90;99.90;;;;;;4976661;28;20515;-79
2022/09/23 08:14:37;;;;;;;12.90;10.07;;;11.80;99.90;;;;;;4976437;28;20403;-81
2022/09/23 08:17:03;;;;;;;10.57;8.93;;;11.80;99.90;;;;;;4976355;28;20059;-82
2022/09/23 08:19:29;;;;;;;10.02;9.10;;;11.90;99.90;;;;;;4976217;28;20372;-82
2022/09/23 08:21:56;;;;;;;10.55;9.18;;;12.20;99.90;;;;;;4975214;28;20058;-81
2022/09/23 08:24:23;;;;;;;12.18;9.25;;;12.00;99.90;;;;;;4975227;28;20058;-82
2022/09/23 08:26:52;;;;;;;11.48;9.68;;;12.00;99.90;;;;;;4976072;28;20050;-80
2022/09/23 08:29:19;;;;;;;11.95;9.55;;;12.10;99.90;;;;;;4976058;28;20046;-80
2022/09/23 08:31:45;;;;;;;10.07;8.80;;;12.10;99.90;;;;;;4976046;28;20134;-82
2022/09/23 08:34:11;;;;;;;10.73;9.48;;;12.10;99.90;;;;;;4974945;28;20133;-81
2022/09/23 08:36:37;;;;;;;11.52;10.32;;;12.30;99.90;;;;;;4974599;28;20062;-81
2022/09/23 08:39:03;;;;;;;10.32;9.32;;;12.10;99.90;;;;;;4974982;28;20475;-81
2022/09/23 08:42:00;;;;;;;9.57;8.65;;;12.10;99.90;;;;;;4975620;28;20561;-79
2022/09/23 08:44:48;;;;;;;10.05;8.27;;;12.10;99.90;;;;;;4975766;28;20411;-79
2022/09/23 08:47:45;;;;;;;10.85;8.80;;;12.30;99.90;;;;;;4976418;28;20444;-79
2022/09/23 08:50:23;;;;;;;11.40;9.00;;;12.40;99.90;;;;;;4975776;28;20094;-78
2022/09/23 08:53:00;;;;;;;11.75;9.48;;;12.30;99.90;;;;;;4975691;28;20376;-79
2022/09/23 08:55:40;;;;;;;10.80;8.27;;;12.30;99.90;;;;;;4975643;28;20062;-79
2022/09/23 08:58:43;;;;;;;9.07;8.18;;;12.40;99.90;;;;;;4974659;28;20491;-78
2022/09/23 09:01:33;;;;;;;11.20;9.07;;;12.40;99.90;;;;;;4975538;28;20047;-80
2022/09/23 09:04:14;;;;;;;11.27;9.00;;;12.70;99.90;;;;;;4975738;28;20047;-80
2022/09/23 09:07:08;;;;;;;9.77;8.77;;;12.80;99.90;;;;;;4975537;28;20043;-80
2022/09/23 09:09:55;;;;;;;10.07;8.55;;;12.80;99.90;;;;;;4975859;28;20058;-81
2022/09/23 09:12:31;;;;;;;9.45;8.05;;;12.80;99.90;;;;;;4975290;28;20050;-80
2022/09/23 09:15:02;;;;;;;9.65;8.63;;;12.90;99.90;;;;;;4976224;28;20502;-81
2022/09/23 09:17:37;;;;;;;10.50;8.85;;;13.00;99.90;;;;;;4975032;28;20518;-80
2022/09/23 09:20:06;;;;;;;9.98;8.10;;;13.00;99.90;;;;;;4975185;28;20082;-79
2022/09/23 09:22:53;;;;;;;9.60;8.60;;;13.00;99.90;;;;;;4976012;28;20137;-80
2022/09/23 09:25:42;;;;;;;8.88;7.80;;;13.30;99.90;;;;;;4976006;28;20492;-79
2022/09/23 09:28:15;;;;;;;9.77;8.82;;;13.20;99.90;;;;;;4975416;28;20057;-80
2022/09/23 09:30:43;;;;;;;9.25;8.27;;;13.20;99.90;;;;;;4974140;28;20062;-79
2022/09/23 09:33:17;;;;;;;10.82;8.15;;;13.30;99.90;;;;;;4974688;28;20558;-81
2022/09/23 09:36:11;;;;;;;10.63;8.40;;;13.20;99.90;;;;;;4973702;28;20506;-80
2022/09/23 09:38:37;;;;;;;8.20;7.35;;;13.30;99.90;;;;;;4975284;28;20497;-80
2022/09/23 09:41:15;;;;;;;8.45;7.63;;;13.30;99.90;;;;;;4974409;28;20186;-80
2022/09/23 09:43:47;;;;;;;10.05;8.27;;;13.50;99.90;;;;;;4975586;28;20055;-80
2022/09/23 09:46:37;;;;;;;9.35;8.27;;;13.30;99.90;;;;;;4974816;28;20419;-80
2022/09/23 09:49:36;;;;;;;9.40;8.27;;;13.40;99.90;;;;;;4974650;28;20561;-80
2022/09/23 09:52:21;;;;;;;10.30;7.95;;;13.40;99.90;;;;;;4947952;28;20074;-81
2022/09/23 09:54:49;;;;;;;11.63;9.02;;;13.40;99.90;;;;;;4974904;28;20109;-80
2022/09/23 09:57:24;;;;;;;10.23;8.52;;;13.70;99.90;;;;;;4974777;28;20046;-81
2022/09/23 09:59:49;;;;;;;10.43;8.95;;;13.50;99.90;;;;;;4975177;28;20084;-80
2022/09/23 10:02:27;;;;;;;9.05;8.07;;;13.50;99.90;;;;;;4957490;28;20113;-80
2022/09/23 10:04:57;;;;;;;9.75;8.75;;;13.50;99.90;;;;;;4973616;28;20053;-80
2022/09/23 10:07:31;;;;;;;10.52;8.25;;;13.50;99.90;;;;;;4974902;28;20557;-81
2022/09/23 10:10:13;;;;;;;9.73;8.32;;;13.60;99.90;;;;;;4974551;28;20503;-80
2022/09/23 10:12:46;;;;;;;10.40;8.32;;;13.50;99.90;;;;;;4977278;28;20078;-80
2022/09/23 10:15:25;;;;;;;;;;;13.50;99.90;;;;;;4977828;28;20062;-80
2022/09/23 10:17:51;;;;;;;10.57;8.57;;;13.60;99.90;;;;;;4977535;28;20024;-80
2022/09/23 10:20:17;;;;;;;9.10;8.23;;;13.70;99.90;;;;;;4977171;28;20112;-81
2022/09/23 10:22:43;;;;;;;10.15;9.10;;;13.70;99.90;;;;;;4978538;28;20198;-81
2022/09/23 10:25:18;;;;;;;10.43;8.77;;;13.80;99.90;;;;;;4977182;28;20035;-80
2022/09/23 10:27:44;;;;;;;12.50;8.30;;;13.70;99.90;;;;;;4978650;28;20133;-80
2022/09/23 10:30:22;;;;;;;11.15;8.43;;;13.60;99.90;;;;;;4977237;28;20042;-79
2022/09/23 10:32:50;;;;;;;11.93;9.35;;;13.70;99.90;;;;;;4979032;28;20362;-80
2022/09/23 10:35:23;;;;;;;9.10;8.20;;;13.70;99.90;;;;;;4977937;28;20055;-80
2022/09/23 10:38:07;;;;;;;8.98;7.85;;;13.80;99.90;;;;;;4978166;28;20118;-79
2022/09/23 10:46:37;;;;;;;9.32;7.40;;;14.20;99.90;;;;;;4977833;28;20171;-81
2022/09/23 10:49:30;;;;;;;9.73;8.57;;;13.90;99.90;;;;;;4978528;28;20488;-80
2022/09/23 10:52:08;;;;;;;9.25;8.35;;;13.90;99.90;;;;;;4977713;28;20376;-80
2022/09/23 10:54:36;;;;;;;10.52;8.13;;;14.40;99.90;;;;;;4978612;28;20435;-80
2022/09/23 10:57:36;;;;;;;10.35;7.78;;;14.00;99.90;;;;;;4977736;28;20061;-80
2022/09/23 11:00:17;;;;;;;10.40;7.47;;;14.20;99.90;;;;;;4976536;28;20114;-78
2022/09/23 11:03:08;;;;;;;8.70;7.68;;;14.10;99.90;;;;;;4976457;28;20042;-76
2022/09/23 11:05:55;;;;;;;9.90;7.90;;;14.20;99.90;;;;;;4978111;28;20152;-79
2022/09/23 11:08:41;;;;;;;10.70;8.10;;;14.20;99.90;;;;;;4977406;28;20155;-78
2022/09/23 11:11:10;;;;;;;9.70;8.00;;;14.10;99.90;;;;;;4977472;28;20057;-79
2022/09/23 11:14:04;;;;;;;11.77;8.63;;;14.20;99.90;;;;;;4977332;28;20057;-79
2022/09/23 11:16:51;;;;;;;9.15;7.93;;;14.40;99.90;;;;;;4976194;28;20118;-79
2022/09/23 11:19:40;;;;;;;10.35;8.20;;;14.20;99.90;;;;;;4977355;28;20049;-79
2022/09/23 11:22:26;;;;;;;8.65;7.68;;;14.40;99.90;;;;;;4977360;28;20118;-77
2022/09/23 11:25:41;;;;;;;8.85;7.55;;;14.50;99.90;;;;;;4975514;28;20497;-77
2022/09/23 11:28:28;;;;;;;12.07;8.43;;;14.50;99.90;;;;;;4917760;29;20056;-78
2022/09/23 11:31:15;;;;;;;9.40;7.47;;;14.50;99.90;;;;;;4973555;28;20078;-79
2022/09/23 11:33:50;;;;;;;10.65;7.55;;;14.60;99.90;;;;;;4976757;28;20105;-80
2022/09/23 11:36:38;;;;;;;9.60;7.63;;;14.80;99.90;;;;;;4977359;28;20062;-80
2022/09/23 11:39:16;;;;;;;9.27;7.88;;;14.80;99.90;;;;;;4976625;28;20054;-77
2022/09/23 11:41:43;;;;;;;11.13;7.78;;;14.60;99.90;;;;;;4976942;28;20497;-79
2022/09/23 11:44:22;;;;;;;9.77;8.18;;;14.70;99.90;;;;;;4975594;28;20565;-78
2022/09/23 11:46:57;;;;;;;10.25;7.97;;;14.90;99.90;;;;;;4977223;28;20051;-79
2022/09/23 11:49:40;;;;;;;11.18;9.65;;;14.90;99.90;;;;;;4976953;28;20054;-79
2022/09/23 11:52:20;;;;;;;11.27;8.20;;;14.80;99.90;;;;;;4975563;28;20054;-79
2022/09/23 11:54:58;;;;;;;9.10;7.05;;;14.90;99.90;;;;;;4976546;28;20574;-80
2022/09/23 11:57:38;;;;;;;8.88;7.18;;;14.90;99.90;;;;;;4977562;28;20082;-79
2022/09/23 12:00:26;;;;;;;8.30;6.70;;;14.90;99.90;;;;;;4976673;28;20054;-79
2022/09/23 12:02:57;;;;;;;7.95;7.15;;;15.30;99.90;;;;;;4943872;28;20050;-79
2022/09/23 12:05:28;;;;;;;8.18;6.25;;;14.90;99.90;;;;;;4977507;28;20179;-79
2022/09/23 12:08:05;;;;;;;8.65;6.75;;;14.90;99.90;;;;;;4975884;28;20130;-79
2022/09/23 12:10:53;;;;;;;11.30;8.18;;;15.20;99.90;;;;;;4975569;28;20051;-78
2022/09/23 12:13:46;;;;;;;9.20;6.95;;;15.00;99.90;;;;;;4976792;28;20475;-80
2022/09/23 12:16:31;;;;;;;10.18;6.60;;;15.10;99.90;;;;;;4976429;28;20050;-79
2022/09/23 12:19:19;;;;;;;8.75;6.80;;;15.10;99.90;;;;;;4975159;28;20047;-79
2022/09/23 12:22:07;;;;;;;9.00;7.07;;;15.10;99.90;;;;;;4977117;28;20082;-80
2022/09/23 12:24:54;;;;;;;8.88;6.10;;;15.10;99.90;;;;;;4975150;28;20082;-79
2022/09/23 12:27:46;;;;;;;7.07;6.38;;;15.20;99.90;;;;;;4975225;28;20054;-79
2022/09/23 12:30:27;;;;;;;8.30;5.85;;;15.10;99.90;;;;;;4975258;28;20475;-80
2022/09/23 12:33:07;;;;;;;8.52;6.47;;;15.20;99.90;;;;;;4977405;28;20054;-80
2022/09/23 12:35:44;;;;;;;7.43;5.35;;;15.40;99.90;;;;;;4975323;28;20110;-79
2022/09/23 12:38:35;;;;;;;7.85;5.97;;;15.20;99.90;;;;;;4976016;28;20090;-79
2022/09/23 12:41:17;;;;;;;6.95;5.25;;;15.20;99.90;;;;;;4968684;28;20055;-79
2022/09/23 12:43:58;;;;;;;8.68;5.80;;;15.40;99.90;;;;;;4976602;28;20058;-79
2022/09/23 12:46:27;;;;;;;5.72;5.07;;;15.50;99.90;;;;;;4975250;28;20050;-79
2022/09/23 12:48:59;;;;;;;6.25;4.70;;;15.30;99.90;;;;;;4974902;28;20132;-79
2022/09/23 12:51:26;;;;;;;6.37;4.43;;;15.40;99.90;;;;;;4976222;28;20461;-79
2022/09/23 12:53:57;;;;;;;7.07;5.38;;;15.60;99.90;;;;;;4975785;28;20054;-79
2022/09/23 12:56:44;;;;;;;6.30;4.97;;;15.40;99.90;;;;;;4975130;28;20058;-80
2022/09/23 12:59:19;;;;;;;5.82;4.45;;;15.60;99.90;;;;;;4975513;28;20053;-79
2022/09/23 13:01:44;;;;;;;6.93;4.55;;;15.40;99.90;;;;;;4976526;28;20053;-80
2022/09/23 13:07:28;;;;;;;5.68;4.13;;;15.50;99.90;;;;;;4975715;28;20057;-79
2022/09/23 13:10:16;;;;;;;6.63;4.80;;;15.40;99.90;;;;;;4975623;28;20043;-79
2022/09/23 13:12:43;;;;;;;7.45;4.85;;;15.60;99.90;;;;;;4976489;28;20054;-78
2022/09/23 13:15:29;;;;;;;6.82;4.70;;;15.50;99.90;;;;;;4975082;28;20125;-77
2022/09/23 13:18:46;;;;;;;8.32;5.55;;;15.60;99.90;;;;;;4975468;28;20051;-77
2022/09/23 13:21:17;;;;;;;7.78;5.18;;;15.60;99.90;;;;;;4950432;28;20063;-78
2022/09/23 13:24:12;;;;;;;6.28;5.50;;;15.70;99.90;;;;;;4975434;28;20046;-77
2022/09/23 13:26:53;;;;;;;6.05;5.05;;;15.70;99.90;;;;;;4975426;28;20047;-78